sensor_id;sensor_type;location;lat;lon;timestamp;pressure;altitude;pressure_sealevel;temperature;humidity
70488;BME280;57976;48.174;16.370;2023-08-06T00:00:38;98082.31;;;16.63;100.00
70488;BME280;57976;48.174;16.370;2023-08-06T00:02:43;98081.30;;;16.61;100.00
70488;BME280;57976;48.174;16.370;2023-08-06T00:04:48;98080.44;;;16.62;100.00
70488;BME280;57976;48.174;16.370;2023-08-06T00:06:53;98071.96;;;16.60;100.00
70488;BME280;57976;48.174;16.370;2023-08-06T00:08:58;98084.75;;;16.59;100.00
70488;BME280;57976;48.174;16.370;2023-08-06T00:11:02;98076.09;;;16.57;100.00
70488;BME280;57976;48.174;16.370;2023-08-06T00:13:07;98079.30;;;16.58;100.00
70488;BME280;57976;48.174;16.370;2023-08-06T00:15:12;98076.29;;;16.57;100.00
70488;BME280;57976;48.174;16.370;2023-08-06T00:17:17;98081.45;;;16.58;100.00
70488;BME280;57976;48.174;16.370;2023-08-06T00:19:22;98085.17;;;16.59;100.00
70488;BME280;57976;48.174;16.370;2023-08-06T00:21:26;98082.80;;;16.59;100.00
70488;BME280;57976;48.174;16.370;2023-08-06T00:23:31;98084.31;;;16.59;100.00
70488;BME280;57976;48.174;16.370;2023-08-06T00:25:42;98084.10;;;16.58;100.00
70488;BME280;57976;48.174;16.370;2023-08-06T00:27:47;98081.19;;;16.55;100.00
70488;BME280;57976;48.174;16.370;2023-08-06T00:29:52;98079.79;;;16.51;100.00
70488;BME280;57976;48.174;16.370;2023-08-06T00:31:56;98070.89;;;16.48;100.00
70488;BME280;57976;48.174;16.370;2023-08-06T00:34:02;98076.11;;;16.44;100.00
70488;BME280;57976;48.174;16.370;2023-08-06T00:36:06;98079.33;;;16.41;100.00
70488;BME280;57976;48.174;16.370;2023-08-06T00:38:12;98078.73;;;16.36;100.00
70488;BME280;57976;48.174;16.370;2023-08-06T00:40:17;98083.42;;;16.33;100.00
70488;BME280;57976;48.174;16.370;2023-08-06T00:42:24;98081.31;;;16.28;100.00
70488;BME280;57976;48.174;16.370;2023-08-06T00:44:29;98076.53;;;16.24;100.00
70488;BME280;57976;48.174;16.370;2023-08-06T00:46:34;98083.02;;;16.19;100.00
70488;BME280;57976;48.174;16.370;2023-08-06T00:48:41;98082.91;;;16.15;100.00
70488;BME280;57976;48.174;16.370;2023-08-06T00:50:47;98081.61;;;16.11;100.00
70488;BME280;57976;48.174;16.370;2023-08-06T00:52:52;98068.67;;;16.08;100.00
70488;BME280;57976;48.174;16.370;2023-08-06T00:54:58;98064.35;;;16.05;100.00
70488;BME280;57976;48.174;16.370;2023-08-06T00:57:03;98066.08;;;16.03;100.00
70488;BME280;57976;48.174;16.370;2023-08-06T00:59:08;98056.98;;;16.00;100.00
70488;BME280;57976;48.174;16.370;2023-08-06T01:03:30;98054.18;;;15.91;100.00
70488;BME280;57976;48.174;16.370;2023-08-06T01:05:35;98056.75;;;15.89;100.00
70488;BME280;57976;48.174;16.370;2023-08-06T01:07:47;98053.21;;;15.86;100.00
70488;BME280;57976;48.174;16.370;2023-08-06T01:10:02;98053.84;;;15.84;100.00
70488;BME280;57976;48.174;16.370;2023-08-06T01:12:21;98049.12;;;15.81;100.00
70488;BME280;57976;48.174;16.370;2023-08-06T01:14:35;98044.70;;;15.78;100.00
70488;BME280;57976;48.174;16.370;2023-08-06T01:16:43;98035.46;;;15.76;100.00
70488;BME280;57976;48.174;16.370;2023-08-06T01:18:49;98031.52;;;15.72;100.00
70488;BME280;57976;48.174;16.370;2023-08-06T01:20:55;98037.98;;;15.72;100.00
70488;BME280;57976;48.174;16.370;2023-08-06T01:23:00;98026.33;;;15.71;100.00
70488;BME280;57976;48.174;16.370;2023-08-06T01:25:06;98032.48;;;15.70;100.00
70488;BME280;57976;48.174;16.370;2023-08-06T01:27:17;98040.98;;;15.69;100.00
70488;BME280;57976;48.174;16.370;2023-08-06T01:29:30;98032.48;;;15.68;100.00
70488;BME280;57976;48.174;16.370;2023-08-06T01:31:38;98031.89;;;15.67;100.00
70488;BME280;57976;48.174;16.370;2023-08-06T01:33:45;98026.84;;;15.66;100.00
70488;BME280;57976;48.174;16.370;2023-08-06T01:35:51;98018.52;;;15.66;100.00
70488;BME280;57976;48.174;16.370;2023-08-06T01:37:58;98017.39;;;15.67;100.00
70488;BME280;57976;48.174;16.370;2023-08-06T01:40:07;98016.38;;;15.68;100.00
70488;BME280;57976;48.174;16.370;2023-08-06T01:42:14;98015.37;;;15.71;100.00
70488;BME280;57976;48.174;16.370;2023-08-06T01:44:19;98028.41;;;15.73;100.00
70488;BME280;57976;48.174;16.370;2023-08-06T01:46:24;98023.98;;;15.75;100.00
70488;BME280;57976;48.174;16.370;2023-08-06T01:48:29;98021.60;;;15.76;100.00
70488;BME280;57976;48.174;16.370;2023-08-06T01:50:34;98018.49;;;15.76;100.00
70488;BME280;57976;48.174;16.370;2023-08-06T01:52:39;98006.57;;;15.75;100.00
70488;BME280;57976;48.174;16.370;2023-08-06T01:54:44;98014.45;;;15.75;100.00
70488;BME280;57976;48.174;16.370;2023-08-06T01:56:49;97997.23;;;15.75;100.00
70488;BME280;57976;48.174;16.370;2023-08-06T01:58:54;97997.60;;;15.75;100.00
70488;BME280;57976;48.174;16.370;2023-08-06T02:01:00;97992.92;;;15.74;100.00
70488;BME280;57976;48.174;16.370;2023-08-06T02:03:05;97993.94;;;15.75;100.00
70488;BME280;57976;48.174;16.370;2023-08-06T02:05:10;97989.76;;;15.75;100.00
70488;BME280;57976;48.174;16.370;2023-08-06T02:07:17;97992.93;;;15.75;100.00
70488;BME280;57976;48.174;16.370;2023-08-06T02:09:22;98000.61;;;15.75;100.00
70488;BME280;57976;48.174;16.370;2023-08-06T02:11:27;97986.11;;;15.75;100.00
70488;BME280;57976;48.174;16.370;2023-08-06T02:13:33;97991.11;;;15.75;100.00
70488;BME280;57976;48.174;16.370;2023-08-06T02:15:43;97988.84;;;15.74;100.00
70488;BME280;57976;48.174;16.370;2023-08-06T02:17:48;97989.27;;;15.72;100.00
70488;BME280;57976;48.174;16.370;2023-08-06T02:19:53;97986.96;;;15.71;100.00
70488;BME280;57976;48.174;16.370;2023-08-06T02:21:58;97996.52;;;15.71;100.00
70488;BME280;57976;48.174;16.370;2023-08-06T02:24:04;98003.66;;;15.70;100.00
70488;BME280;57976;48.174;16.370;2023-08-06T02:26:09;98000.42;;;15.69;100.00
70488;BME280;57976;48.174;16.370;2023-08-06T02:28:14;97992.38;;;15.68;100.00
70488;BME280;57976;48.174;16.370;2023-08-06T02:30:19;97987.77;;;15.68;100.00
70488;BME280;57976;48.174;16.370;2023-08-06T02:32:24;97981.95;;;15.66;100.00
70488;BME280;57976;48.174;16.370;2023-08-06T02:34:29;97976.05;;;15.65;100.00
70488;BME280;57976;48.174;16.370;2023-08-06T02:36:35;97969.16;;;15.65;100.00
70488;BME280;57976;48.174;16.370;2023-08-06T02:38:40;97968.10;;;15.65;100.00
70488;BME280;57976;48.174;16.370;2023-08-06T02:40:46;97964.40;;;15.64;100.00
70488;BME280;57976;48.174;16.370;2023-08-06T02:42:51;97956.61;;;15.65;100.00
70488;BME280;57976;48.174;16.370;2023-08-06T02:44:56;97956.88;;;15.65;100.00
70488;BME280;57976;48.174;16.370;2023-08-06T02:47:01;97951.94;;;15.65;100.00
70488;BME280;57976;48.174;16.370;2023-08-06T02:49:07;97953.92;;;15.66;100.00
70488;BME280;57976;48.174;16.370;2023-08-06T02:51:12;97966.16;;;15.68;100.00
70488;BME280;57976;48.174;16.370;2023-08-06T02:53:17;97963.17;;;15.70;100.00
70488;BME280;57976;48.174;16.370;2023-08-06T02:55:25;97959.30;;;15.71;100.00
70488;BME280;57976;48.174;16.370;2023-08-06T02:57:30;97955.02;;;15.72;100.00
70488;BME280;57976;48.174;16.370;2023-08-06T02:59:35;97972.95;;;15.73;100.00
70488;BME280;57976;48.174;16.370;2023-08-06T03:01:47;97959.15;;;15.75;100.00
70488;BME280;57976;48.174;16.370;2023-08-06T03:03:57;97968.54;;;15.75;100.00
70488;BME280;57976;48.174;16.370;2023-08-06T03:06:06;97974.45;;;15.76;100.00
70488;BME280;57976;48.174;16.370;2023-08-06T03:08:17;97970.74;;;15.79;100.00
70488;BME280;57976;48.174;16.370;2023-08-06T03:10:22;97968.87;;;15.81;100.00
70488;BME280;57976;48.174;16.370;2023-08-06T03:12:29;97968.86;;;15.82;100.00
70488;BME280;57976;48.174;16.370;2023-08-06T03:14:34;97967.69;;;15.84;100.00
70488;BME280;57976;48.174;16.370;2023-08-06T03:16:41;97970.81;;;15.86;100.00
70488;BME280;57976;48.174;16.370;2023-08-06T03:18:46;97970.29;;;15.87;100.00
70488;BME280;57976;48.174;16.370;2023-08-06T03:20:51;97970.60;;;15.90;100.00
70488;BME280;57976;48.174;16.370;2023-08-06T03:22:57;97973.07;;;15.92;100.00
70488;BME280;57976;48.174;16.370;2023-08-06T03:25:02;97970.33;;;15.94;100.00
70488;BME280;57976;48.174;16.370;2023-08-06T03:27:08;97966.88;;;15.95;100.00
70488;BME280;57976;48.174;16.370;2023-08-06T03:29:13;97976.62;;;15.97;100.00
70488;BME280;57976;48.174;16.370;2023-08-06T03:31:19;97971.29;;;16.00;100.00
70488;BME280;57976;48.174;16.370;2023-08-06T03:33:25;97970.70;;;16.01;100.00
70488;BME280;57976;48.174;16.370;2023-08-06T03:35:30;97971.09;;;16.03;100.00
70488;BME280;57976;48.174;16.370;2023-08-06T03:37:35;97960.17;;;16.06;100.00
70488;BME280;57976;48.174;16.370;2023-08-06T03:39:41;97957.70;;;16.07;100.00
70488;BME280;57976;48.174;16.370;2023-08-06T03:41:46;97961.42;;;16.08;100.00
70488;BME280;57976;48.174;16.370;2023-08-06T03:43:52;97961.41;;;16.09;100.00
70488;BME280;57976;48.174;16.370;2023-08-06T03:46:00;97959.30;;;16.11;100.00
70488;BME280;57976;48.174;16.370;2023-08-06T03:48:06;97960.70;;;16.12;100.00
70488;BME280;57976;48.174;16.370;2023-08-06T03:50:11;97959.62;;;16.14;100.00
70488;BME280;57976;48.174;16.370;2023-08-06T03:52:16;97953.34;;;16.16;100.00
70488;BME280;57976;48.174;16.370;2023-08-06T03:54:21;97948.52;;;16.18;100.00
70488;BME280;57976;48.174;16.370;2023-08-06T03:56:26;97941.46;;;16.20;100.00
70488;BME280;57976;48.174;16.370;2023-08-06T03:58:32;97944.21;;;16.21;100.00
70488;BME280;57976;48.174;16.370;2023-08-06T04:00:40;97955.11;;;16.23;100.00
70488;BME280;57976;48.174;16.370;2023-08-06T04:02:45;97953.39;;;16.26;100.00
70488;BME280;57976;48.174;16.370;2023-08-06T04:04:51;97952.80;;;16.27;100.00
70488;BME280;57976;48.174;16.370;2023-08-06T04:06:56;97958.06;;;16.27;100.00
70488;BME280;57976;48.174;16.370;2023-08-06T04:09:01;97950.27;;;16.30;100.00
70488;BME280;57976;48.174;16.370;2023-08-06T04:11:08;97946.61;;;16.30;100.00
70488;BME280;57976;48.174;16.370;2023-08-06T04:13:13;97947.30;;;16.31;100.00
70488;BME280;57976;48.174;16.370;2023-08-06T04:15:18;97956.06;;;16.32;100.00
70488;BME280;57976;48.174;16.370;2023-08-06T04:17:23;97949.98;;;16.33;100.00
70488;BME280;57976;48.174;16.370;2023-08-06T04:19:28;97958.55;;;16.35;100.00
70488;BME280;57976;48.174;16.370;2023-08-06T04:21:33;97950.52;;;16.35;100.00
70488;BME280;57976;48.174;16.370;2023-08-06T04:23:38;97957.23;;;16.37;100.00
70488;BME280;57976;48.174;16.370;2023-08-06T04:25:45;97954.88;;;16.39;100.00
70488;BME280;57976;48.174;16.370;2023-08-06T04:27:50;97960.23;;;16.42;100.00
70488;BME280;57976;48.174;16.370;2023-08-06T04:29:56;97958.73;;;16.44;100.00
70488;BME280;57976;48.174;16.370;2023-08-06T04:32:03;97943.20;;;16.46;100.00
70488;BME280;57976;48.174;16.370;2023-08-06T04:34:08;97949.96;;;16.47;100.00
70488;BME280;57976;48.174;16.370;2023-08-06T04:36:14;97947.23;;;16.48;100.00
70488;BME280;57976;48.174;16.370;2023-08-06T04:38:20;97943.85;;;16.49;100.00
70488;BME280;57976;48.174;16.370;2023-08-06T04:40:25;97945.00;;;16.51;100.00
70488;BME280;57976;48.174;16.370;2023-08-06T04:42:31;97945.73;;;16.53;100.00
70488;BME280;57976;48.174;16.370;2023-08-06T04:44:37;97944.17;;;16.53;100.00
70488;BME280;57976;48.174;16.370;2023-08-06T04:46:43;97946.48;;;16.55;100.00
70488;BME280;57976;48.174;16.370;2023-08-06T04:48:50;97952.77;;;16.56;100.00
70488;BME280;57976;48.174;16.370;2023-08-06T04:50:55;97940.45;;;16.58;100.00
70488;BME280;57976;48.174;16.370;2023-08-06T04:53:01;97934.32;;;16.59;100.00
70488;BME280;57976;48.174;16.370;2023-08-06T04:55:07;97939.27;;;16.61;100.00
70488;BME280;57976;48.174;16.370;2023-08-06T04:57:12;97932.55;;;16.62;100.00
70488;BME280;57976;48.174;16.370;2023-08-06T04:59:17;97940.50;;;16.63;100.00
70488;BME280;57976;48.174;16.370;2023-08-06T05:01:22;97933.02;;;16.65;100.00
70488;BME280;57976;48.174;16.370;2023-08-06T05:03:27;97929.78;;;16.66;100.00
70488;BME280;57976;48.174;16.370;2023-08-06T05:05:32;97948.34;;;16.68;100.00
70488;BME280;57976;48.174;16.370;2023-08-06T05:07:37;97936.07;;;16.70;100.00
70488;BME280;57976;48.174;16.370;2023-08-06T05:09:42;97928.27;;;16.70;100.00
70488;BME280;57976;48.174;16.370;2023-08-06T05:11:48;97919.38;;;16.71;100.00
70488;BME280;57976;48.174;16.370;2023-08-06T05:13:53;97924.39;;;16.73;100.00
70488;BME280;57976;48.174;16.370;2023-08-06T05:15:58;97931.52;;;16.74;100.00
70488;BME280;57976;48.174;16.370;2023-08-06T05:18:04;97930.40;;;16.75;100.00
70488;BME280;57976;48.174;16.370;2023-08-06T05:20:14;97920.61;;;16.77;100.00
70488;BME280;57976;48.174;16.370;2023-08-06T05:22:19;97932.64;;;16.78;100.00
70488;BME280;57976;48.174;16.370;2023-08-06T05:24:25;97931.36;;;16.81;100.00
70488;BME280;57976;48.174;16.370;2023-08-06T05:26:30;97933.98;;;16.81;100.00
70488;BME280;57976;48.174;16.370;2023-08-06T05:28:35;97941.30;;;16.82;100.00
70488;BME280;57976;48.174;16.370;2023-08-06T05:30:42;97931.61;;;16.83;100.00
70488;BME280;57976;48.174;16.370;2023-08-06T05:32:47;97930.36;;;16.85;100.00
70488;BME280;57976;48.174;16.370;2023-08-06T05:34:52;97935.30;;;16.86;100.00
70488;BME280;57976;48.174;16.370;2023-08-06T05:36:57;97931.97;;;16.87;100.00
70488;BME280;57976;48.174;16.370;2023-08-06T05:39:02;97924.54;;;16.88;100.00
70488;BME280;57976;48.174;16.370;2023-08-06T05:41:10;97933.90;;;16.89;100.00
70488;BME280;57976;48.174;16.370;2023-08-06T05:43:16;97928.30;;;16.92;100.00
70488;BME280;57976;48.174;16.370;2023-08-06T05:45:21;97937.20;;;16.95;100.00
70488;BME280;57976;48.174;16.370;2023-08-06T05:47:26;97931.06;;;16.97;100.00
70488;BME280;57976;48.174;16.370;2023-08-06T05:49:31;97931.54;;;17.00;100.00
70488;BME280;57976;48.174;16.370;2023-08-06T05:51:36;97936.64;;;17.02;100.00
70488;BME280;57976;48.174;16.370;2023-08-06T05:53:44;97942.30;;;17.04;100.00
70488;BME280;57976;48.174;16.370;2023-08-06T05:55:50;97933.56;;;17.05;100.00
70488;BME280;57976;48.174;16.370;2023-08-06T05:57:55;97942.44;;;17.07;100.00
70488;BME280;57976;48.174;16.370;2023-08-06T06:00:01;97946.68;;;17.09;100.00
70488;BME280;57976;48.174;16.370;2023-08-06T06:02:16;97933.75;;;17.10;100.00
70488;BME280;57976;48.174;16.370;2023-08-06T06:04:21;97935.14;;;17.12;100.00
70488;BME280;57976;48.174;16.370;2023-08-06T06:06:26;97930.77;;;17.14;100.00
70488;BME280;57976;48.174;16.370;2023-08-06T06:08:31;97940.89;;;17.15;100.00
70488;BME280;57976;48.174;16.370;2023-08-06T06:10:37;97944.39;;;17.17;100.00
70488;BME280;57976;48.174;16.370;2023-08-06T06:12:42;97949.10;;;17.19;100.00
70488;BME280;57976;48.174;16.370;2023-08-06T06:14:47;97956.25;;;17.21;100.00
70488;BME280;57976;48.174;16.370;2023-08-06T06:16:52;97955.27;;;17.23;100.00
70488;BME280;57976;48.174;16.370;2023-08-06T06:18:57;97959.55;;;17.27;100.00
70488;BME280;57976;48.174;16.370;2023-08-06T06:21:03;97963.14;;;17.31;100.00
70488;BME280;57976;48.174;16.370;2023-08-06T06:23:08;97965.13;;;17.33;100.00
70488;BME280;57976;48.174;16.370;2023-08-06T06:25:13;97978.73;;;17.35;100.00
70488;BME280;57976;48.174;16.370;2023-08-06T06:27:18;97975.60;;;17.37;100.00
70488;BME280;57976;48.174;16.370;2023-08-06T06:29:23;97967.26;;;17.38;100.00
70488;BME280;57976;48.174;16.370;2023-08-06T06:31:28;97975.88;;;17.39;100.00
70488;BME280;57976;48.174;16.370;2023-08-06T06:33:33;97966.48;;;17.41;100.00
70488;BME280;57976;48.174;16.370;2023-08-06T06:35:40;97962.42;;;17.43;100.00
70488;BME280;57976;48.174;16.370;2023-08-06T06:37:45;97971.20;;;17.45;100.00
70488;BME280;57976;48.174;16.370;2023-08-06T06:39:50;97976.19;;;17.47;100.00
70488;BME280;57976;48.174;16.370;2023-08-06T06:41:55;97972.09;;;17.48;100.00
70488;BME280;57976;48.174;16.370;2023-08-06T06:44:02;97973.51;;;17.51;100.00
70488;BME280;57976;48.174;16.370;2023-08-06T06:46:07;97974.56;;;17.54;100.00
70488;BME280;57976;48.174;16.370;2023-08-06T06:48:13;97977.85;;;17.56;100.00
70488;BME280;57976;48.174;16.370;2023-08-06T06:50:18;97984.39;;;17.59;100.00
70488;BME280;57976;48.174;16.370;2023-08-06T06:52:23;97983.38;;;17.59;100.00
70488;BME280;57976;48.174;16.370;2023-08-06T06:54:28;97977.77;;;17.61;100.00
70488;BME280;57976;48.174;16.370;2023-08-06T06:56:33;97967.79;;;17.62;100.00
70488;BME280;57976;48.174;16.370;2023-08-06T06:58:38;97971.62;;;17.63;100.00
70488;BME280;57976;48.174;16.370;2023-08-06T07:00:43;97966.48;;;17.63;100.00
70488;BME280;57976;48.174;16.370;2023-08-06T07:02:49;97965.30;;;17.65;100.00
70488;BME280;57976;48.174;16.370;2023-08-06T07:04:54;97965.59;;;17.68;100.00
70488;BME280;57976;48.174;16.370;2023-08-06T07:06:59;97966.91;;;17.71;100.00
70488;BME280;57976;48.174;16.370;2023-08-06T07:09:04;97966.13;;;17.69;100.00
70488;BME280;57976;48.174;16.370;2023-08-06T07:11:09;97975.00;;;17.70;100.00
70488;BME280;57976;48.174;16.370;2023-08-06T07:13:14;97974.52;;;17.71;100.00
70488;BME280;57976;48.174;16.370;2023-08-06T07:15:19;97986.30;;;17.71;100.00
70488;BME280;57976;48.174;16.370;2023-08-06T07:17:24;97975.60;;;17.71;100.00
70488;BME280;57976;48.174;16.370;2023-08-06T07:19:29;97964.82;;;17.72;100.00
70488;BME280;57976;48.174;16.370;2023-08-06T07:21:35;97970.80;;;17.72;100.00
70488;BME280;57976;48.174;16.370;2023-08-06T07:23:40;97959.08;;;17.75;100.00
70488;BME280;57976;48.174;16.370;2023-08-06T07:25:45;97966.17;;;17.77;100.00
70488;BME280;57976;48.174;16.370;2023-08-06T07:27:51;97965.79;;;17.79;100.00
70488;BME280;57976;48.174;16.370;2023-08-06T07:29:57;97953.00;;;17.81;100.00
70488;BME280;57976;48.174;16.370;2023-08-06T07:32:02;97961.80;;;17.86;100.00
70488;BME280;57976;48.174;16.370;2023-08-06T07:34:07;97967.79;;;17.93;100.00
70488;BME280;57976;48.174;16.370;2023-08-06T07:36:14;97974.48;;;17.99;100.00
70488;BME280;57976;48.174;16.370;2023-08-06T07:38:19;97980.48;;;18.03;100.00
70488;BME280;57976;48.174;16.370;2023-08-06T07:40:25;97980.35;;;18.06;100.00
70488;BME280;57976;48.174;16.370;2023-08-06T07:42:32;97974.45;;;18.08;100.00
70488;BME280;57976;48.174;16.370;2023-08-06T07:44:37;97963.46;;;18.13;100.00
70488;BME280;57976;48.174;16.370;2023-08-06T07:46:45;97961.17;;;18.18;100.00
70488;BME280;57976;48.174;16.370;2023-08-06T07:48:51;97945.79;;;18.25;100.00
70488;BME280;57976;48.174;16.370;2023-08-06T07:50:57;97942.73;;;18.30;100.00
70488;BME280;57976;48.174;16.370;2023-08-06T07:53:02;97949.45;;;18.31;100.00
70488;BME280;57976;48.174;16.370;2023-08-06T07:55:08;97944.46;;;18.34;100.00
70488;BME280;57976;48.174;16.370;2023-08-06T07:57:13;97939.16;;;18.36;100.00
70488;BME280;57976;48.174;16.370;2023-08-06T07:59:18;97943.33;;;18.34;100.00
70488;BME280;57976;48.174;16.370;2023-08-06T08:01:23;97937.70;;;18.31;100.00
70488;BME280;57976;48.174;16.370;2023-08-06T08:03:29;97942.42;;;18.28;100.00
70488;BME280;57976;48.174;16.370;2023-08-06T08:05:34;97940.41;;;18.24;100.00
70488;BME280;57976;48.174;16.370;2023-08-06T08:07:39;97937.22;;;18.24;100.00
70488;BME280;57976;48.174;16.370;2023-08-06T08:09:44;97931.98;;;18.24;100.00
70488;BME280;57976;48.174;16.370;2023-08-06T08:11:49;97937.17;;;18.24;100.00
70488;BME280;57976;48.174;16.370;2023-08-06T08:13:55;97933.77;;;18.25;100.00
70488;BME280;57976;48.174;16.370;2023-08-06T08:16:00;97946.15;;;18.26;100.00
70488;BME280;57976;48.174;16.370;2023-08-06T08:18:06;97942.83;;;18.26;100.00
70488;BME280;57976;48.174;16.370;2023-08-06T08:20:12;97936.73;;;18.23;100.00
70488;BME280;57976;48.174;16.370;2023-08-06T08:22:17;97921.57;;;18.21;100.00
70488;BME280;57976;48.174;16.370;2023-08-06T08:24:22;97922.30;;;18.18;100.00
70488;BME280;57976;48.174;16.370;2023-08-06T08:26:28;97916.55;;;18.15;100.00
70488;BME280;57976;48.174;16.370;2023-08-06T08:28:33;97914.35;;;18.14;100.00
70488;BME280;57976;48.174;16.370;2023-08-06T08:30:38;97916.86;;;18.12;100.00
70488;BME280;57976;48.174;16.370;2023-08-06T08:32:45;97918.30;;;18.14;100.00
70488;BME280;57976;48.174;16.370;2023-08-06T08:34:50;97920.60;;;18.16;100.00
70488;BME280;57976;48.174;16.370;2023-08-06T08:36:55;97922.02;;;18.19;100.00
70488;BME280;57976;48.174;16.370;2023-08-06T08:39:00;97920.70;;;18.20;100.00
70488;BME280;57976;48.174;16.370;2023-08-06T08:41:06;97929.33;;;18.21;100.00
70488;BME280;57976;48.174;16.370;2023-08-06T08:43:12;97931.58;;;18.23;100.00
70488;BME280;57976;48.174;16.370;2023-08-06T08:45:26;97938.55;;;18.27;100.00
70488;BME280;57976;48.174;16.370;2023-08-06T08:47:33;97943.20;;;18.31;100.00
70488;BME280;57976;48.174;16.370;2023-08-06T08:49:39;97950.52;;;18.33;100.00
70488;BME280;57976;48.174;16.370;2023-08-06T08:51:47;97953.77;;;18.36;100.00
70488;BME280;57976;48.174;16.370;2023-08-06T08:53:54;97943.40;;;18.39;100.00
70488;BME280;57976;48.174;16.370;2023-08-06T08:56:00;97961.75;;;18.44;100.00
70488;BME280;57976;48.174;16.370;2023-08-06T08:58:06;97949.77;;;18.43;100.00
70488;BME280;57976;48.174;16.370;2023-08-06T09:00:11;97955.87;;;18.46;100.00
70488;BME280;57976;48.174;16.370;2023-08-06T09:02:17;97957.80;;;18.48;100.00
70488;BME280;57976;48.174;16.370;2023-08-06T09:04:27;97963.34;;;18.47;100.00
70488;BME280;57976;48.174;16.370;2023-08-06T09:06:39;97963.87;;;18.42;100.00
70488;BME280;57976;48.174;16.370;2023-08-06T09:08:50;97955.63;;;18.34;100.00
70488;BME280;57976;48.174;16.370;2023-08-06T09:10:57;97944.25;;;18.28;100.00
70488;BME280;57976;48.174;16.370;2023-08-06T09:13:02;97958.57;;;18.25;100.00
70488;BME280;57976;48.174;16.370;2023-08-06T09:15:09;97962.45;;;18.20;100.00
70488;BME280;57976;48.174;16.370;2023-08-06T09:17:14;97957.59;;;18.14;100.00
70488;BME280;57976;48.174;16.370;2023-08-06T09:19:22;97966.67;;;18.12;100.00
70488;BME280;57976;48.174;16.370;2023-08-06T09:21:30;97972.09;;;18.08;100.00
70488;BME280;57976;48.174;16.370;2023-08-06T09:23:35;97979.77;;;18.05;100.00
70488;BME280;57976;48.174;16.370;2023-08-06T09:25:40;97976.66;;;18.02;100.00
70488;BME280;57976;48.174;16.370;2023-08-06T09:27:47;97982.63;;;18.03;100.00
70488;BME280;57976;48.174;16.370;2023-08-06T09:29:52;97977.52;;;18.05;100.00
70488;BME280;57976;48.174;16.370;2023-08-06T09:31:57;97975.95;;;18.03;100.00
70488;BME280;57976;48.174;16.370;2023-08-06T09:34:10;97976.70;;;18.03;100.00
70488;BME280;57976;48.174;16.370;2023-08-06T09:36:18;97976.05;;;17.98;100.00
70488;BME280;57976;48.174;16.370;2023-08-06T09:38:24;97975.09;;;17.95;100.00
70488;BME280;57976;48.174;16.370;2023-08-06T09:40:31;97976.63;;;17.94;100.00
70488;BME280;57976;48.174;16.370;2023-08-06T09:42:39;97976.47;;;17.92;100.00
70488;BME280;57976;48.174;16.370;2023-08-06T09:44:51;97975.08;;;17.91;100.00
70488;BME280;57976;48.174;16.370;2023-08-06T09:46:59;97976.14;;;17.88;100.00
70488;BME280;57976;48.174;16.370;2023-08-06T09:49:09;97986.17;;;17.86;100.00
70488;BME280;57976;48.174;16.370;2023-08-06T09:51:15;97983.27;;;17.85;100.00
70488;BME280;57976;48.174;16.370;2023-08-06T09:53:35;97995.86;;;17.87;100.00
70488;BME280;57976;48.174;16.370;2023-08-06T09:55:52;97977.80;;;17.87;100.00
70488;BME280;57976;48.174;16.370;2023-08-06T09:57:58;97980.88;;;17.87;100.00
70488;BME280;57976;48.174;16.370;2023-08-06T10:00:06;97978.05;;;17.89;100.00
70488;BME280;57976;48.174;16.370;2023-08-06T10:02:16;97976.95;;;17.94;100.00
70488;BME280;57976;48.174;16.370;2023-08-06T10:04:23;97979.16;;;18.01;100.00
70488;BME280;57976;48.174;16.370;2023-08-06T10:06:42;97977.98;;;18.04;100.00
70488;BME280;57976;48.174;16.370;2023-08-06T10:08:48;97983.19;;;18.09;100.00
70488;BME280;57976;48.174;16.370;2023-08-06T10:10:53;97985.84;;;18.14;100.00
70488;BME280;57976;48.174;16.370;2023-08-06T10:13:00;97993.65;;;18.16;100.00
70488;BME280;57976;48.174;16.370;2023-08-06T10:15:11;97995.88;;;18.19;100.00
70488;BME280;57976;48.174;16.370;2023-08-06T10:17:17;98003.68;;;18.20;100.00
70488;BME280;57976;48.174;16.370;2023-08-06T10:19:23;97995.10;;;18.22;100.00
70488;BME280;57976;48.174;16.370;2023-08-06T10:21:28;98001.42;;;18.25;100.00
70488;BME280;57976;48.174;16.370;2023-08-06T10:23:36;98004.44;;;18.28;100.00
70488;BME280;57976;48.174;16.370;2023-08-06T10:25:44;98004.17;;;18.33;100.00
70488;BME280;57976;48.174;16.370;2023-08-06T10:28:00;98013.04;;;18.37;100.00
70488;BME280;57976;48.174;16.370;2023-08-06T10:30:25;98006.80;;;18.43;100.00
70488;BME280;57976;48.174;16.370;2023-08-06T10:32:50;98010.25;;;18.51;100.00
70488;BME280;57976;48.174;16.370;2023-08-06T10:34:59;98005.91;;;18.54;100.00
70488;BME280;57976;48.174;16.370;2023-08-06T10:37:04;98011.65;;;18.57;100.00
70488;BME280;57976;48.174;16.370;2023-08-06T10:39:14;98012.05;;;18.61;100.00
70488;BME280;57976;48.174;16.370;2023-08-06T10:41:34;98007.61;;;18.68;100.00
70488;BME280;57976;48.174;16.370;2023-08-06T10:43:39;98010.20;;;18.73;100.00
70488;BME280;57976;48.174;16.370;2023-08-06T10:45:51;98021.17;;;18.76;100.00
70488;BME280;57976;48.174;16.370;2023-08-06T10:47:59;98013.08;;;18.78;100.00
70488;BME280;57976;48.174;16.370;2023-08-06T10:50:07;98022.85;;;18.77;100.00
70488;BME280;57976;48.174;16.370;2023-08-06T10:52:12;98019.10;;;18.75;100.00
70488;BME280;57976;48.174;16.370;2023-08-06T10:54:17;98017.42;;;18.74;100.00